createdAt,value
2019-02-22T00:01:37.112Z,94.00
2019-02-22T00:04:22.128Z,93.30
2019-02-22T00:07:07.429Z,93.90
2019-02-22T00:09:52.705Z,93.70
2019-02-22T00:12:38.136Z,93.80
2019-02-22T00:15:23.523Z,93.90
2019-02-22T00:18:08.936Z,93.70
2019-02-22T00:20:56.550Z,93.40
2019-02-22T00:23:42.458Z,93.60
2019-02-22T00:26:28.249Z,93.70
2019-02-22T00:29:13.350Z,93.50
2019-02-22T00:31:58.601Z,93.70
2019-02-22T00:34:45.263Z,93.40
2019-02-22T00:37:30.429Z,93.00
2019-02-22T00:40:15.882Z,93.10
2019-02-22T00:43:01.076Z,92.90
2019-02-22T00:45:46.432Z,93.20
2019-02-22T00:48:31.384Z,92.90
2019-02-22T00:51:16.367Z,92.70
2019-02-22T00:54:01.605Z,92.70
2019-02-22T00:56:48.631Z,93.00
2019-02-22T00:59:33.333Z,92.70
2019-02-22T01:02:19.349Z,92.00
2019-02-22T01:05:05.485Z,92.00
2019-02-22T01:07:50.438Z,92.30
2019-02-22T01:10:35.377Z,92.20
2019-02-22T01:13:20.233Z,91.70
2019-02-22T01:16:06.787Z,91.60
2019-02-22T01:18:52.079Z,91.70
2019-02-22T01:21:38.200Z,91.80
2019-02-22T01:24:24.524Z,91.60
2019-02-22T01:27:09.769Z,91.80
2019-02-22T01:29:54.579Z,92.00
2019-02-22T01:32:39.706Z,92.10
2019-02-22T01:35:24.876Z,91.70
2019-02-22T01:38:09.997Z,91.00
2019-02-22T01:40:55.201Z,91.20
2019-02-22T01:44:00.338Z,91.40
2019-02-22T01:46:45.483Z,91.40
2019-02-22T01:49:30.530Z,91.50
2019-02-22T01:52:15.914Z,90.70
2019-02-22T01:55:01.310Z,90.90
2019-02-22T01:57:46.446Z,91.40
2019-02-22T02:00:32.361Z,91.20
2019-02-22T02:03:17.532Z,90.80
2019-02-22T02:06:02.801Z,90.80
2019-02-22T02:08:48.145Z,90.50
2019-02-22T02:11:33.221Z,90.20
2019-02-22T02:14:18.420Z,90.60
2019-02-22T02:17:03.602Z,90.30
2019-02-22T02:19:48.974Z,89.60
2019-02-22T02:22:34.010Z,89.00
2019-02-22T02:25:19.418Z,88.30
2019-02-22T02:28:05.217Z,87.90
2019-02-22T02:30:51.088Z,88.00
2019-02-22T02:33:38.240Z,88.60
2019-02-22T02:36:23.796Z,88.70
2019-02-22T02:39:08.788Z,88.40
2019-02-22T02:41:54.866Z,87.60
2019-02-22T02:44:40.351Z,88.30
2019-02-22T02:47:25.293Z,87.80
2019-02-22T02:50:15.852Z,88.30
2019-02-22T02:53:01.414Z,86.70
2019-02-22T02:55:46.231Z,86.60
2019-02-22T02:58:33.825Z,86.40
2019-02-22T03:01:20.886Z,85.30
2019-02-22T03:04:06.217Z,85.80
2019-02-22T03:06:53.335Z,85.60
2019-02-22T03:09:38.134Z,86.20
2019-02-22T03:12:23.604Z,86.70
2019-02-22T03:15:12.685Z,86.60
2019-02-22T03:17:58.051Z,86.30
2019-02-22T03:20:43.116Z,85.30
2019-02-22T03:23:30.485Z,85.70
2019-02-22T03:26:15.698Z,85.60
2019-02-22T03:29:01.090Z,85.40
2019-02-22T03:31:46.406Z,84.10
2019-02-22T03:34:31.322Z,83.50
2019-02-22T03:37:16.974Z,83.20
2019-02-22T03:40:02.382Z,84.70
2019-02-22T03:42:49.872Z,83.20
2019-02-22T03:45:35.119Z,82.80
2019-02-22T03:48:20.472Z,83.80
2019-02-22T03:51:05.317Z,84.30
2019-02-22T03:53:51.520Z,84.60
2019-02-22T03:56:36.968Z,85.00
2019-02-22T03:59:22.139Z,84.20
2019-02-22T04:02:09.415Z,84.20
2019-02-22T04:04:54.594Z,83.70
2019-02-22T04:07:39.995Z,82.90
2019-02-22T04:10:26.295Z,83.10
2019-02-22T04:13:11.536Z,82.50
2019-02-22T04:15:56.623Z,82.90
2019-02-22T04:18:41.890Z,83.10
2019-02-22T04:21:28.732Z,83.00
2019-02-22T04:24:13.996Z,82.80
2019-02-22T04:26:59.332Z,80.90
2019-02-22T04:29:44.286Z,81.00
2019-02-22T04:32:29.626Z,80.50
2019-02-22T04:35:14.872Z,80.00
2019-02-22T04:38:00.085Z,79.70
2019-02-22T04:40:44.859Z,78.50
2019-02-22T04:43:30.297Z,77.40
2019-02-22T04:46:17.931Z,78.00
2019-02-22T04:49:02.274Z,77.70
2019-02-22T04:51:49.091Z,77.40
2019-02-22T04:54:34.274Z,77.00
2019-02-22T04:57:20.369Z,77.00
2019-02-22T05:00:06.120Z,76.40
2019-02-22T05:02:51.171Z,76.30
2019-02-22T05:05:36.433Z,75.90
2019-02-22T05:08:22.037Z,76.20
2019-02-22T05:11:07.015Z,76.10
2019-02-22T05:13:53.386Z,76.20
2019-02-22T05:16:38.067Z,76.60
2019-02-22T05:19:22.946Z,76.00
2019-02-22T05:22:08.167Z,74.80
2019-02-22T05:24:53.484Z,74.80
2019-02-22T05:27:38.485Z,73.70
2019-02-22T05:30:23.394Z,74.40
2019-02-22T05:33:08.507Z,75.80
2019-02-22T05:35:53.814Z,74.50
2019-02-22T05:38:39.014Z,75.40
2019-02-22T05:41:24.396Z,75.90
2019-02-22T05:44:09.738Z,77.00
2019-02-22T05:47:00.311Z,76.80
2019-02-22T05:49:42.100Z,76.00
2019-02-22T05:52:27.470Z,75.50
2019-02-22T05:55:12.575Z,75.70
2019-02-22T05:57:57.893Z,76.40
2019-02-22T06:00:43.910Z,76.70
2019-02-22T06:03:29.211Z,76.10
2019-02-22T06:06:14.281Z,75.50
2019-02-22T06:08:59.423Z,75.60
2019-02-22T06:11:44.791Z,75.30
2019-02-22T06:14:29.684Z,74.20
2019-02-22T06:17:15.100Z,74.10
2019-02-22T06:20:00.459Z,74.40
2019-02-22T06:22:46.581Z,74.10
2019-02-22T06:25:31.983Z,74.60
2019-02-22T06:28:18.947Z,73.50
2019-02-22T06:31:04.592Z,72.70
2019-02-22T06:33:49.990Z,72.40
2019-02-22T06:36:35.162Z,73.80
2019-02-22T06:39:21.014Z,73.60
2019-02-22T06:42:06.468Z,71.90
2019-02-22T06:44:51.650Z,71.60
2019-02-22T06:47:38.964Z,72.10
2019-02-22T06:50:33.689Z,71.80
2019-02-22T06:53:16.595Z,71.70
2019-02-22T06:56:01.803Z,71.50
2019-02-22T06:58:47.054Z,71.70
2019-02-22T07:01:32.625Z,71.60
2019-02-22T07:04:22.511Z,70.80
2019-02-22T07:07:07.597Z,71.50
2019-02-22T07:09:53.082Z,72.50
2019-02-22T07:12:40.053Z,70.80
2019-02-22T07:15:25.100Z,71.40
2019-02-22T07:18:10.622Z,69.30
2019-02-22T07:20:56.571Z,69.20
2019-02-22T07:23:42.056Z,68.40
2019-02-22T07:26:27.157Z,68.10
2019-02-22T07:29:12.490Z,69.30
2019-02-22T07:32:05.317Z,67.70
2019-02-22T07:34:44.580Z,68.70
2019-02-22T07:37:29.825Z,67.70
2019-02-22T07:40:19.803Z,67.70
2019-02-22T07:43:07.924Z,68.40
2019-02-22T07:45:50.563Z,67.90
2019-02-22T07:48:37.338Z,66.30
2019-02-22T07:51:22.229Z,64.30
2019-02-22T07:54:07.720Z,65.40
2019-02-22T07:56:53.112Z,64.20
2019-02-22T07:59:38.598Z,62.80
2019-02-22T08:02:24.037Z,63.20
2019-02-22T08:05:09.631Z,62.50
2019-02-22T08:07:55.225Z,62.50
2019-02-22T08:10:40.147Z,63.30
2019-02-22T08:13:25.455Z,62.80
2019-02-22T08:16:10.888Z,63.60
2019-02-22T08:19:01.607Z,60.90
2019-02-22T08:21:43.565Z,61.90
2019-02-22T08:24:29.028Z,61.70
2019-02-22T08:27:14.226Z,61.40
2019-02-22T08:29:59.176Z,62.50
2019-02-22T08:32:44.609Z,62.50
2019-02-22T08:35:29.880Z,60.30
2019-02-22T08:38:14.967Z,59.60
2019-02-22T08:41:00.294Z,57.10
2019-02-22T08:43:45.590Z,57.40
2019-02-22T08:46:30.672Z,58.00
2019-02-22T08:49:15.926Z,57.90
2019-02-22T08:52:01.117Z,57.80
2019-02-22T08:54:47.491Z,57.70
2019-02-22T08:57:33.389Z,57.60
2019-02-22T09:00:18.701Z,57.60
2019-02-22T09:03:03.824Z,57.10
2019-02-22T09:05:48.956Z,56.40
2019-02-22T09:08:34.332Z,55.20
2019-02-22T09:11:20.453Z,55.90
2019-02-22T09:14:05.425Z,56.30
2019-02-22T09:16:50.555Z,54.70
2019-02-22T09:19:35.811Z,53.70
2019-02-22T09:22:23.180Z,52.00
2019-02-22T09:25:08.295Z,53.50
2019-02-22T09:27:53.402Z,53.00
2019-02-22T09:30:38.698Z,51.30
2019-02-22T09:33:24.009Z,50.80
2019-02-22T09:36:09.224Z,51.90
2019-02-22T09:38:54.366Z,50.50
2019-02-22T09:41:39.602Z,49.70
2019-02-22T09:44:24.914Z,49.80
2019-02-22T09:47:10.386Z,47.70
2019-02-22T09:49:55.544Z,46.80
2019-02-22T09:52:41.223Z,47.20
2019-02-22T09:55:26.587Z,46.40
2019-02-22T09:58:11.911Z,47.00
2019-02-22T10:00:57.145Z,47.10
2019-02-22T10:03:42.093Z,47.20
2019-02-22T10:06:27.112Z,44.30
2019-02-22T10:09:12.123Z,43.90
2019-02-22T10:11:57.398Z,45.50
2019-02-22T10:14:42.836Z,46.60
2019-02-22T10:17:27.929Z,45.40
2019-02-22T10:20:13.295Z,46.80
2019-02-22T10:22:59.159Z,44.10
2019-02-22T10:25:44.204Z,44.90
2019-02-22T10:28:29.999Z,46.00
2019-02-22T10:31:15.203Z,44.40
2019-02-22T10:34:00.311Z,44.00
2019-02-22T10:36:45.702Z,44.50
2019-02-22T10:39:30.749Z,45.00
2019-02-22T10:42:16.041Z,47.00
2019-02-22T10:45:01.502Z,45.60
2019-02-22T10:47:47.214Z,44.10
2019-02-22T10:50:32.648Z,42.80
2019-02-22T10:53:17.681Z,43.70
2019-02-22T10:56:02.703Z,44.10
2019-02-22T10:58:47.782Z,46.30
2019-02-22T11:01:33.291Z,45.30
2019-02-22T11:04:18.499Z,46.20
2019-02-22T11:07:05.084Z,47.80
2019-02-22T11:09:49.767Z,44.30
2019-02-22T11:12:35.165Z,45.70
2019-02-22T11:15:20.383Z,45.20
2019-02-22T11:18:05.765Z,45.20
2019-02-22T11:20:51.107Z,44.80
2019-02-22T11:23:36.244Z,46.50
2019-02-22T11:26:21.359Z,46.60
2019-02-22T11:29:06.758Z,47.60
2019-02-22T11:31:51.855Z,46.20
2019-02-22T11:34:37.129Z,46.60
2019-02-22T11:37:22.600Z,47.30
2019-02-22T11:40:11.673Z,47.50
2019-02-22T11:42:56.830Z,47.90
2019-02-22T11:45:42.646Z,47.60
2019-02-22T11:48:27.874Z,47.60
2019-02-22T11:51:13.656Z,45.90
2019-02-22T11:53:58.506Z,46.90
2019-02-22T11:56:43.978Z,48.00
2019-02-22T11:59:28.979Z,47.30
2019-02-22T12:02:14.520Z,46.10
2019-02-22T12:04:59.689Z,46.50
2019-02-22T12:07:45.127Z,46.10
2019-02-22T12:10:30.399Z,45.00
2019-02-22T12:13:15.663Z,44.60
2019-02-22T12:16:00.765Z,45.60
2019-02-22T12:18:45.964Z,46.10
2019-02-22T12:21:31.169Z,46.70
2019-02-22T12:24:35.873Z,45.60
2019-02-22T12:27:21.385Z,44.70
2019-02-22T12:30:14.685Z,45.30
2019-02-22T12:33:00.097Z,45.80
2019-02-22T12:35:45.316Z,45.50
2019-02-22T12:38:30.583Z,45.60
2019-02-22T12:41:15.914Z,45.70
2019-02-22T12:44:00.899Z,45.00
2019-02-22T12:46:46.398Z,45.30
2019-02-22T12:49:31.599Z,44.50
2019-02-22T12:52:16.714Z,43.80
2019-02-22T12:55:02.209Z,42.90
2019-02-22T13:00:40.075Z,43.20
2019-02-22T13:03:25.478Z,44.60
2019-02-22T13:06:10.551Z,45.00
2019-02-22T13:08:55.618Z,45.80
2019-02-22T13:11:40.957Z,45.50
2019-02-22T13:14:26.277Z,45.20
2019-02-22T13:17:11.383Z,44.40
2019-02-22T13:19:56.746Z,44.60
2019-02-22T13:22:42.134Z,44.20
2019-02-22T13:25:27.301Z,43.70
2019-02-22T13:28:12.859Z,42.00
2019-02-22T13:30:57.842Z,43.30
2019-02-22T13:33:43.847Z,43.10
2019-02-22T13:36:29.948Z,44.70
2019-02-22T13:39:15.230Z,45.30
2019-02-22T13:45:12.452Z,48.80
2019-02-22T13:47:58.107Z,49.80
2019-02-22T13:50:43.490Z,48.10
2019-02-22T13:53:28.875Z,46.90
2019-02-22T13:56:14.193Z,46.40
2019-02-22T13:58:59.299Z,48.00
2019-02-22T14:01:44.434Z,48.20
2019-02-22T14:04:29.753Z,48.80
2019-02-22T14:07:15.142Z,49.00
2019-02-22T14:10:00.367Z,49.50
2019-02-22T14:12:45.710Z,49.90
2019-02-22T14:15:37.875Z,49.80
2019-02-22T14:18:17.728Z,48.40
2019-02-22T14:24:14.373Z,47.50
2019-02-22T14:27:00.027Z,48.30
2019-02-22T14:29:44.859Z,48.30
2019-02-22T14:32:30.576Z,47.90
2019-02-22T14:35:15.641Z,48.50
2019-02-22T14:38:00.874Z,48.00
2019-02-22T14:40:46.076Z,47.10
2019-02-22T14:43:36.105Z,46.60
2019-02-22T14:46:25.894Z,45.70
2019-02-22T14:49:08.380Z,46.80
2019-02-22T14:51:54.079Z,47.00
2019-02-22T14:54:38.992Z,46.40
2019-02-22T14:57:24.005Z,45.50
2019-02-22T15:00:20.384Z,44.60
2019-02-22T15:03:05.173Z,45.90
2019-02-22T15:05:50.627Z,44.50
2019-02-22T15:08:35.855Z,44.70
2019-02-22T15:11:21.213Z,44.60
2019-02-22T15:14:06.410Z,45.60
2019-02-22T15:17:10.151Z,46.00
2019-02-22T15:19:55.183Z,45.80
2019-02-22T15:22:40.583Z,45.80
2019-02-22T15:25:26.002Z,45.70
2019-02-22T15:28:11.215Z,45.90
2019-02-22T15:30:56.575Z,45.50
2019-02-22T15:33:42.183Z,46.40
2019-02-22T15:36:27.427Z,46.80
2019-02-22T15:39:12.723Z,46.50
2019-02-22T15:41:58.550Z,46.20
2019-02-22T15:44:43.825Z,46.90
2019-02-22T15:47:29.429Z,46.70
2019-02-22T15:50:15.958Z,46.30
2019-02-22T15:53:00.942Z,46.20
2019-02-22T15:55:50.094Z,45.90
2019-02-22T15:58:34.914Z,46.80
2019-02-22T16:01:20.376Z,47.20
2019-02-22T16:04:13.921Z,47.50
2019-02-22T16:07:01.962Z,47.90
2019-02-22T16:09:55.260Z,47.40
2019-02-22T16:12:45.593Z,48.00
2019-02-22T16:15:43.963Z,48.90
2019-02-22T16:18:24.756Z,47.50
2019-02-22T16:21:09.905Z,46.40
2019-02-22T16:23:55.408Z,47.20
2019-02-22T16:26:40.296Z,47.60
2019-02-22T16:29:25.577Z,47.80
2019-02-22T16:32:11.092Z,48.80
2019-02-22T16:34:56.305Z,48.90
2019-02-22T16:37:41.661Z,48.00
2019-02-22T16:40:26.572Z,48.50
2019-02-22T16:43:11.764Z,48.20
2019-02-22T16:45:57.008Z,47.10
2019-02-22T16:48:42.408Z,47.90
2019-02-22T16:51:27.583Z,47.80
2019-02-22T16:54:12.923Z,48.20
2019-02-22T16:56:58.627Z,48.40
2019-02-22T16:59:44.034Z,49.30
2019-02-22T17:02:29.178Z,49.70
2019-02-22T17:05:15.575Z,48.80
2019-02-22T17:08:00.758Z,49.10
2019-02-22T17:10:46.045Z,49.20
2019-02-22T17:13:30.927Z,49.70
2019-02-22T17:16:16.565Z,50.10
2019-02-22T17:19:01.495Z,50.10
2019-02-22T17:21:46.386Z,50.30
2019-02-22T17:24:31.551Z,50.60
2019-02-22T17:27:16.589Z,50.30
2019-02-22T17:30:02.773Z,50.80
2019-02-22T17:32:48.242Z,51.00
2019-02-22T17:35:33.861Z,51.30
2019-02-22T17:38:21.122Z,50.70
2019-02-22T17:41:06.488Z,51.90
2019-02-22T17:43:51.618Z,52.50
2019-02-22T17:46:57.598Z,53.10
2019-02-22T17:49:41.137Z,53.70
2019-02-22T17:52:26.254Z,54.60
2019-02-22T17:55:11.450Z,54.80
2019-02-22T17:57:56.988Z,55.30
2019-02-22T18:00:42.329Z,55.00
2019-02-22T18:03:27.624Z,55.80
2019-02-22T18:06:12.864Z,55.50
2019-02-22T18:09:01.037Z,56.00
2019-02-22T18:11:46.327Z,55.50
2019-02-22T18:14:31.511Z,55.30
2019-02-22T18:17:16.634Z,55.20
2019-02-22T18:20:06.856Z,55.10
2019-02-22T18:22:49.533Z,54.80
2019-02-22T18:25:34.988Z,54.60
2019-02-22T18:28:19.821Z,54.20
2019-02-22T18:31:05.435Z,53.80
2019-02-22T18:33:51.960Z,54.40
2019-02-22T18:36:36.976Z,54.90
2019-02-22T18:39:22.746Z,54.60
2019-02-22T18:42:08.406Z,54.60
2019-02-22T18:44:53.447Z,54.60
2019-02-22T18:47:40.845Z,54.90
2019-02-22T18:50:29.531Z,54.50
2019-02-22T18:53:14.992Z,54.20
2019-02-22T18:56:00.556Z,54.80
2019-02-22T18:58:45.887Z,54.60
2019-02-22T19:01:31.893Z,55.00
2019-02-22T19:04:17.350Z,55.20
2019-02-22T19:07:02.568Z,55.20
2019-02-22T19:09:47.969Z,55.40
2019-02-22T19:12:33.490Z,55.60
2019-02-22T19:15:18.683Z,56.20
2019-02-22T19:18:06.115Z,56.10
2019-02-22T19:20:51.591Z,56.00
2019-02-22T19:23:36.695Z,56.20
2019-02-22T19:26:21.937Z,56.10
2019-02-22T19:29:07.583Z,56.70
2019-02-22T19:31:52.832Z,57.50
2019-02-22T19:34:37.989Z,56.90
2019-02-22T19:37:23.135Z,56.80
2019-02-22T19:40:11.609Z,57.10
2019-02-22T19:42:56.811Z,57.90
2019-02-22T19:46:06.462Z,57.50
2019-02-22T19:48:52.401Z,57.80
2019-02-22T19:51:37.625Z,58.30
2019-02-22T19:54:23.631Z,57.80
2019-02-22T19:57:09.001Z,57.50
2019-02-22T19:59:54.758Z,57.70
2019-02-22T20:02:40.031Z,58.20
2019-02-22T20:05:25.093Z,58.20
2019-02-22T20:08:10.387Z,57.80
2019-02-22T20:10:56.092Z,57.90
2019-02-22T20:13:41.519Z,58.00
2019-02-22T20:16:26.854Z,58.20
2019-02-22T20:19:11.891Z,58.20
2019-02-22T20:21:57.512Z,58.60
2019-02-22T20:24:42.921Z,58.20
2019-02-22T20:27:27.963Z,58.70
2019-02-22T20:30:16.212Z,58.50
2019-02-22T20:33:01.418Z,58.90
2019-02-22T20:35:46.640Z,58.40
2019-02-22T20:38:31.809Z,60.10
2019-02-22T20:41:17.075Z,59.60
2019-02-22T20:44:04.394Z,60.40
2019-02-22T20:46:49.884Z,60.10
2019-02-22T20:49:35.791Z,59.60
2019-02-22T20:52:21.737Z,59.90
2019-02-22T20:55:11.028Z,60.30
2019-02-22T20:57:55.972Z,61.00
2019-02-22T21:00:41.099Z,59.60
2019-02-22T21:03:31.698Z,59.80
2019-02-22T21:09:13.694Z,60.60
2019-02-22T21:11:59.165Z,60.20
2019-02-22T21:14:44.363Z,60.50
2019-02-22T21:17:29.541Z,61.70
2019-02-22T21:20:19.420Z,61.70
2019-02-22T21:23:04.385Z,62.90
2019-02-22T21:25:49.753Z,61.50
2019-02-22T21:28:34.881Z,61.20
2019-02-22T21:31:20.086Z,62.10
2019-02-22T21:34:05.434Z,62.10
2019-02-22T21:36:50.732Z,61.60
2019-02-22T21:39:35.770Z,62.50
2019-02-22T21:42:21.042Z,61.30
2019-02-22T21:45:26.182Z,62.20
2019-02-22T21:48:11.369Z,62.30
2019-02-22T21:50:56.870Z,62.30
2019-02-22T21:53:41.759Z,62.80
2019-02-22T21:56:27.032Z,62.90
2019-02-22T21:59:12.269Z,63.20
2019-02-22T22:01:57.525Z,61.60
2019-02-22T22:04:43.141Z,61.50
2019-02-22T22:07:28.518Z,61.90
2019-02-22T22:10:13.669Z,63.00
2019-02-22T22:12:58.595Z,63.30
2019-02-22T22:15:43.521Z,63.10
2019-02-22T22:18:38.535Z,64.30
2019-02-22T22:21:16.069Z,66.00
2019-02-22T22:24:01.063Z,65.20
2019-02-22T22:26:46.455Z,64.80
2019-02-22T22:29:31.863Z,65.30
2019-02-22T22:32:17.318Z,65.60
2019-02-22T22:35:04.104Z,66.00
2019-02-22T22:37:49.514Z,65.70
2019-02-22T22:40:54.824Z,65.70
2019-02-22T22:43:39.714Z,65.50
2019-02-22T22:46:36.902Z,65.50
2019-02-22T22:49:17.220Z,66.60
2019-02-22T22:52:02.336Z,68.90
2019-02-22T22:54:47.537Z,68.20
2019-02-22T22:57:32.306Z,66.60
2019-02-22T23:00:50.373Z,65.50
2019-02-22T23:03:35.637Z,66.30
2019-02-22T23:06:20.967Z,68.60
2019-02-22T23:09:08.301Z,68.00
2019-02-22T23:11:57.040Z,68.30
2019-02-22T23:14:44.235Z,69.60
2019-02-22T23:17:29.763Z,70.60
2019-02-22T23:20:15.585Z,70.30
2019-02-22T23:23:04.461Z,71.80
2019-02-22T23:26:26.628Z,70.20
2019-02-22T23:37:59.150Z,72.00
2019-02-22T23:38:56.794Z,71.90
2019-02-22T23:41:42.573Z,71.90
2019-02-22T23:44:28.035Z,72.10
2019-02-22T23:47:13.650Z,71.40
2019-02-22T23:49:59.030Z,70.90
2019-02-22T23:56:15.421Z,72.00
2019-02-22T23:59:00.845Z,72.50
